Time;durP1;ratioP1;P1;durP2;ratioP2;P2;SDS_P1;SDS_P2;PMS_P1;PMS_P2;Temp;Humidity;BMP_temperature;BMP_pressure;BME280_temperature;BME280_humidity;BME280_pressure;Samples;Min_cycle;Max_cycle;Signal;HPM_P1;HPM_P2
2023/03/19 00:01:56;;;;;;;13.10;7.67;;;;;;;15.34;44.53;97131.22;5039950;28;21044;-69
2023/03/19 00:04:23;;;;;;;12.40;6.93;;;;;;;15.40;44.44;97134.94;5045441;28;20880;-70
2023/03/19 00:06:49;;;;;;;12.77;7.03;;;;;;;15.49;43.61;97134.66;5026982;28;20186;-71
2023/03/19 00:09:14;;;;;;;11.77;7.07;;;;;;;15.55;43.90;97122.53;5044675;28;20789;-72
2023/03/19 00:11:40;;;;;;;11.20;6.70;;;;;;;15.55;43.98;97135.75;5048983;28;20524;-69
2023/03/19 00:14:05;;;;;;;11.63;6.90;;;;;;;15.58;44.39;97134.53;5037025;28;20270;-70
2023/03/19 00:16:31;;;;;;;10.03;6.50;;;;;;;15.57;44.25;97135.53;5034067;28;20198;-72
2023/03/19 00:18:56;;;;;;;16.93;7.03;;;;;;;15.57;44.25;97125.78;5042343;28;20273;-70
2023/03/19 00:21:22;;;;;;;10.03;7.17;;;;;;;15.57;44.42;97127.63;5032558;28;20734;-70
2023/03/19 00:23:47;;;;;;;16.10;6.97;;;;;;;15.52;44.58;97130.81;5047151;28;20327;-70
2023/03/19 00:26:13;;;;;;;16.20;7.87;;;;;;;15.50;44.89;97136.25;5026649;28;20195;-70
2023/03/19 00:28:38;;;;;;;12.20;7.67;;;;;;;15.32;45.32;97128.75;5031882;28;20184;-70
2023/03/19 00:31:12;;;;;;;10.00;6.70;;;;;;;15.26;45.54;97128.66;5039702;28;20222;-70
2023/03/19 00:33:38;;;;;;;15.17;7.70;;;;;;;15.24;45.41;97130.69;5028355;28;20214;-71
2023/03/19 00:36:04;;;;;;;9.57;6.20;;;;;;;15.26;45.38;97137.41;5038179;28;20454;-70
2023/03/19 00:38:30;;;;;;;11.27;6.73;;;;;;;15.32;45.43;97141.13;5039163;28;20650;-71
2023/03/19 00:40:56;;;;;;;12.30;7.23;;;;;;;15.39;45.31;97133.31;5032055;28;20862;-71
2023/03/19 00:43:22;;;;;;;10.90;7.13;;;;;;;15.45;44.67;97133.38;5044292;28;20529;-70
2023/03/19 00:45:47;;;;;;;10.80;5.93;;;;;;;15.44;44.73;97126.47;5050198;28;20248;-70
2023/03/19 00:48:13;;;;;;;13.40;6.83;;;;;;;15.44;45.06;97141.47;5054848;28;20440;-71
2023/03/19 00:50:38;;;;;;;15.07;6.87;;;;;;;15.42;45.25;97127.66;5039012;28;20207;-72
2023/03/19 00:53:04;;;;;;;12.87;6.73;;;;;;;15.39;45.00;97134.09;5052678;28;20186;-71
2023/03/19 00:55:30;;;;;;;11.20;6.17;;;;;;;15.39;45.33;97134.09;5049454;28;20234;-69
2023/03/19 00:57:55;;;;;;;11.73;6.33;;;;;;;15.33;45.26;97140.13;5058217;28;20683;-69
2023/03/19 01:00:21;;;;;;;15.13;6.30;;;;;;;15.26;45.50;97140.06;5044868;28;20344;-71
2023/03/19 01:02:46;;;;;;;9.90;6.10;;;;;;;15.27;45.37;97131.13;5043520;28;20230;-70
2023/03/19 01:05:12;;;;;;;13.73;6.00;;;;;;;15.23;45.79;97147.53;5054404;28;20683;-70
2023/03/19 01:07:38;;;;;;;10.80;6.20;;;;;;;15.28;45.44;97145.13;5052852;28;20180;-70
2023/03/19 01:10:04;;;;;;;10.43;6.30;;;;;;;15.29;45.51;97144.97;5047790;28;20533;-70
2023/03/19 01:12:29;;;;;;;12.70;6.20;;;;;;;15.29;45.87;97146.78;5051113;28;20186;-72
2023/03/19 01:14:55;;;;;;;12.83;5.73;;;;;;;15.24;46.24;97155.25;5046849;28;20875;-70
2023/03/19 01:17:20;;;;;;;16.33;6.53;;;;;;;15.27;46.36;97156.69;5056347;28;20211;-70
2023/03/19 01:19:46;;;;;;;10.90;6.20;;;;;;;15.27;46.33;97157.53;5052819;28;20270;-72
2023/03/19 01:22:13;;;;;;;8.50;5.57;;;;;;;15.30;46.07;97164.25;5036526;28;20595;-70
2023/03/19 01:24:38;;;;;;;9.33;5.80;;;;;;;15.27;45.93;97167.25;5046662;28;20213;-72
2023/03/19 01:27:03;;;;;;;12.60;6.60;;;;;;;15.31;46.03;97171.19;5036544;28;20442;-71
2023/03/19 01:29:29;;;;;;;10.63;5.70;;;;;;;15.25;46.21;97175.38;5041714;28;20240;-72
2023/03/19 01:31:55;;;;;;;8.60;4.37;;;;;;;15.07;46.35;97183.66;5042791;28;20254;-71
2023/03/19 01:34:21;;;;;;;6.63;4.30;;;;;;;15.19;45.71;97191.94;5050894;28;20183;-70
2023/03/19 01:36:47;;;;;;;6.60;3.57;;;;;;;15.23;44.01;97189.78;5058515;28;20214;-70
2023/03/19 01:39:13;;;;;;;6.80;3.00;;;;;;;15.33;42.65;97198.22;5040482;28;20425;-71
2023/03/19 01:41:38;;;;;;;4.73;3.40;;;;;;;15.40;41.96;97198.31;5041647;28;20437;-73
2023/03/19 01:44:26;;;;;;;8.20;3.33;;;;;;;15.48;41.34;97191.13;5046048;28;20181;-70
2023/03/19 01:46:52;;;;;;;9.00;3.50;;;;;;;15.55;40.85;97190.38;5045489;28;20183;-71
2023/03/19 01:49:18;;;;;;;6.40;3.20;;;;;;;15.43;40.90;97188.19;5041034;28;20433;-72
2023/03/19 01:51:45;;;;;;;12.60;4.17;;;;;;;15.47;40.95;97194.75;5051245;28;20794;-72
2023/03/19 01:54:17;;;;;;;4.80;3.60;;;;;;;15.49;40.89;97192.75;5039139;28;20517;-71
2023/03/19 01:56:44;;;;;;;4.30;3.50;;;;;;;15.41;41.12;97190.19;5040283;28;20457;-70
2023/03/19 01:59:26;;;;;;;4.90;3.60;;;;;;;15.38;41.76;97201.13;5047185;28;20436;-70
2023/03/19 02:01:56;;;;;;;5.80;3.43;;;;;;;15.43;42.03;97205.88;5048459;28;20453;-71
2023/03/19 02:04:23;;;;;;;6.00;3.57;;;;;;;15.45;42.22;97212.59;5040841;28;20921;-74
2023/03/19 02:06:49;;;;;;;7.17;4.23;;;;;;;15.44;43.28;97215.41;5051651;28;20428;-70
2023/03/19 02:09:17;;;;;;;6.57;3.90;;;;;;;15.27;45.81;97207.69;5046697;28;20448;-72
2023/03/19 02:11:42;;;;;;;9.27;4.00;;;;;;;15.29;47.25;97213.63;5044272;28;20246;-74
2023/03/19 02:14:08;;;;;;;7.40;4.17;;;;;;;15.30;48.92;97209.16;5046672;28;20492;-70
2023/03/19 02:16:34;;;;;;;5.30;3.37;;;;;;;15.18;50.23;97222.81;5036935;28;20244;-70
2023/03/19 02:19:00;;;;;;;5.00;3.77;;;;;;;15.23;51.31;97224.88;5043233;28;20423;-70
2023/03/19 02:21:25;;;;;;;5.40;4.03;;;;;;;15.23;51.76;97216.16;5048247;28;20199;-71
2023/03/19 02:24:16;;;;;;;6.00;4.30;;;;;;;15.16;53.27;97221.34;5049062;28;20504;-71
2023/03/19 02:26:42;;;;;;;13.03;6.90;;;;;;;15.14;54.22;97226.78;5041031;28;20186;-71
2023/03/19 02:29:07;;;;;;;9.30;6.17;;;;;;;15.05;55.25;97212.88;5045692;28;20417;-71
2023/03/19 02:31:33;;;;;;;7.77;5.47;;;;;;;15.06;55.31;97211.03;5046838;28;20461;-70
2023/03/19 02:34:00;;;;;;;8.27;4.00;;;;;;;15.05;55.70;97206.78;5044730;28;20266;-69
2023/03/19 02:36:30;;;;;;;5.00;4.00;;;;;;;15.15;55.94;97211.78;5042535;28;20211;-71
2023/03/19 02:38:57;;;;;;;6.40;4.27;;;;;;;15.13;56.29;97205.88;5048698;28;21024;-69
2023/03/19 02:41:23;;;;;;;7.60;3.77;;;;;;;15.09;56.57;97205.41;5040270;28;20845;-69
2023/03/19 02:43:50;;;;;;;4.10;3.70;;;;;;;15.09;56.34;97207.22;5044919;28;20455;-70
2023/03/19 02:46:15;;;;;;;6.73;4.10;;;;;;;14.93;57.28;97213.50;5047367;28;20520;-70
2023/03/19 02:48:40;;;;;;;7.40;4.57;;;;;;;14.83;58.15;97219.84;5052162;28;20510;-70
2023/03/19 02:51:07;;;;;;;4.60;4.10;;;;;;;14.81;57.92;97216.56;5047785;28;20206;-71
2023/03/19 02:53:33;;;;;;;4.63;4.20;;;;;;;14.85;58.21;97217.84;5050648;28;20253;-73
2023/03/19 02:55:59;;;;;;;6.70;3.93;;;;;;;14.84;58.41;97208.28;5039132;28;21109;-69
2023/03/19 02:58:25;;;;;;;4.20;3.80;;;;;;;14.92;58.34;97206.56;5050365;28;20418;-71
2023/03/19 03:00:51;;;;;;;5.67;4.00;;;;;;;14.88;58.52;97203.47;5049844;28;20452;-71
2023/03/19 03:03:16;;;;;;;4.77;4.13;;;;;;;14.88;58.78;97206.13;5053025;28;20175;-69
2023/03/19 03:05:42;;;;;;;6.83;4.10;;;;;;;14.83;59.35;97214.56;5056069;28;20425;-70
2023/03/19 03:08:08;;;;;;;7.43;4.57;;;;;;;14.83;59.17;97219.84;5053065;28;20728;-71
2023/03/19 03:10:33;;;;;;;6.50;5.70;;;;;;;14.78;59.28;97221.38;5050688;28;20210;-72
2023/03/19 03:13:00;;;;;;;5.97;4.53;;;;;;;14.63;59.82;97227.41;5054083;28;20183;-70
2023/03/19 03:15:25;;;;;;;8.20;4.73;;;;;;;14.67;59.66;97230.50;5046371;28;20195;-72
2023/03/19 03:17:51;;;;;;;8.53;4.07;;;;;;;14.67;59.67;97220.81;5048956;28;21165;-69
2023/03/19 03:20:18;;;;;;;5.93;4.73;;;;;;;14.68;59.73;97224.25;5052428;28;20594;-70
2023/03/19 03:22:44;;;;;;;8.03;5.63;;;;;;;14.48;60.36;97222.09;5047957;28;20222;-70
2023/03/19 03:25:10;;;;;;;6.43;4.80;;;;;;;14.48;60.83;97210.72;5041197;28;20429;-70
2023/03/19 03:27:36;;;;;;;5.30;4.53;;;;;;;14.57;60.66;97215.75;5043581;28;20191;-69
2023/03/19 03:30:04;;;;;;;10.00;4.20;;;;;;;14.67;60.28;97217.31;5050984;28;20183;-69
2023/03/19 03:32:29;;;;;;;5.57;4.10;;;;;;;14.73;60.07;97219.28;5049847;28;20468;-69
2023/03/19 03:34:55;;;;;;;5.70;4.80;;;;;;;14.66;60.27;97227.06;5055135;28;20862;-70
2023/03/19 03:37:20;;;;;;;7.47;5.13;;;;;;;14.67;60.35;97225.22;5034542;28;20203;-70
2023/03/19 03:39:46;;;;;;;7.30;5.30;;;;;;;14.75;60.10;97219.91;5052774;28;20182;-69
2023/03/19 03:42:11;;;;;;;4.77;4.23;;;;;;;14.78;60.07;97229.28;5049642;28;20860;-70
2023/03/19 03:44:37;;;;;;;4.97;4.10;;;;;;;14.77;60.03;97231.09;5041360;28;20318;-70
2023/03/19 03:47:02;;;;;;;5.67;4.37;;;;;;;14.74;60.26;97234.13;5043607;28;20182;-71
2023/03/19 03:49:27;;;;;;;9.60;4.47;;;;;;;14.81;59.41;97237.66;5056386;28;20183;-70
2023/03/19 03:51:53;;;;;;;5.60;4.37;;;;;;;14.77;58.84;97240.84;5052998;28;20199;-70
2023/03/19 03:54:18;;;;;;;5.57;4.60;;;;;;;14.81;58.73;97234.19;5050925;28;20275;-71
2023/03/19 03:56:44;;;;;;;8.60;4.80;;;;;;;14.82;58.54;97231.41;5055154;28;20211;-72
2023/03/19 03:59:09;;;;;;;4.43;4.00;;;;;;;14.87;57.99;97236.94;5047281;28;20266;-70
2023/03/19 04:01:35;;;;;;;8.53;4.20;;;;;;;14.81;58.45;97232.41;5039541;28;20231;-71
2023/03/19 04:04:00;;;;;;;5.00;4.40;;;;;;;14.75;58.60;97243.66;5047925;28;20186;-70
2023/03/19 04:06:26;;;;;;;7.20;4.30;;;;;;;14.83;58.03;97240.94;5048689;28;20175;-72
2023/03/19 04:08:52;;;;;;;8.00;3.97;;;;;;;14.72;58.18;97239.56;5052760;28;20193;-70
2023/03/19 04:11:18;;;;;;;5.17;4.03;;;;;;;14.73;58.51;97248.31;5031535;28;20294;-72
2023/03/19 04:13:43;;;;;;;10.43;4.37;;;;;;;14.70;58.31;97238.09;5043820;28;20186;-71
2023/03/19 04:16:09;;;;;;;5.30;3.87;;;;;;;14.54;57.86;97249.56;5055253;28;20190;-69
2023/03/19 04:18:35;;;;;;;9.10;3.33;;;;;;;14.58;57.87;97242.94;5038669;28;20194;-71
2023/03/19 04:21:02;;;;;;;5.50;3.80;;;;;;;14.67;57.93;97249.84;5037523;28;20450;-69
2023/03/19 04:23:27;;;;;;;4.73;4.23;;;;;;;14.72;58.18;97249.28;5042021;28;20628;-71
2023/03/19 04:26:00;;;;;;;5.23;4.17;;;;;;;14.79;58.37;97249.41;5048729;28;20432;-72
2023/03/19 04:28:26;;;;;;;7.57;4.50;;;;;;;14.76;58.79;97253.19;5038853;28;20245;-71
2023/03/19 04:30:52;;;;;;;9.33;4.10;;;;;;;14.79;59.21;97247.56;5042523;28;20457;-71
2023/03/19 04:33:18;;;;;;;5.90;4.17;;;;;;;14.83;58.94;97251.50;5045819;28;21060;-70
2023/03/19 04:35:43;;;;;;;7.47;4.77;;;;;;;14.90;58.72;97251.63;5030777;28;20183;-70
2023/03/19 04:38:08;;;;;;;7.97;4.60;;;;;;;14.84;58.48;97252.31;5033282;28;20465;-69
2023/03/19 04:40:34;;;;;;;6.00;4.33;;;;;;;14.84;59.08;97254.94;5040689;28;20214;-71
2023/03/19 04:43:00;;;;;;;5.77;4.33;;;;;;;14.84;59.13;97258.44;5035992;28;20275;-70
2023/03/19 04:45:25;;;;;;;5.20;4.00;;;;;;;14.81;58.40;97261.41;5039614;28;20862;-71
2023/03/19 04:47:51;;;;;;;8.00;4.30;;;;;;;14.77;58.84;97261.94;5045185;28;20194;-69
2023/03/19 04:50:17;;;;;;;5.20;4.00;;;;;;;14.75;59.24;97270.03;5039663;28;20211;-71
2023/03/19 04:52:42;;;;;;;5.17;4.30;;;;;;;14.75;59.12;97262.09;5043058;28;20227;-69
2023/03/19 04:55:08;;;;;;;6.87;3.97;;;;;;;14.70;59.06;97267.91;5034475;28;20182;-69
2023/03/19 04:57:34;;;;;;;6.47;4.30;;;;;;;14.70;58.99;97265.28;5040105;28;20211;-70
2023/03/19 05:00:00;;;;;;;5.53;4.40;;;;;;;14.59;58.17;97263.88;5036509;28;20191;-69
2023/03/19 05:02:26;;;;;;;5.83;4.10;;;;;;;14.57;58.43;97271.13;5031914;28;20498;-71
2023/03/19 05:04:51;;;;;;;5.37;3.63;;;;;;;14.59;58.49;97266.50;5037170;28;20183;-71
2023/03/19 05:07:17;;;;;;;5.83;3.87;;;;;;;14.63;58.54;97277.53;5032280;28;20769;-70
2023/03/19 05:09:42;;;;;;;8.17;4.10;;;;;;;14.54;58.99;97273.31;5046145;28;20221;-70
2023/03/19 05:12:09;;;;;;;5.97;4.50;;;;;;;14.41;59.64;97273.88;5041100;28;20706;-71
2023/03/19 05:14:34;;;;;;;5.73;4.20;;;;;;;14.46;60.39;97276.81;5049159;28;20572;-72
2023/03/19 05:17:00;;;;;;;5.00;4.57;;;;;;;14.50;60.21;97279.91;5036861;28;20465;-70
2023/03/19 05:19:25;;;;;;;5.10;3.83;;;;;;;14.51;59.94;97274.47;5052557;28;20186;-70
2023/03/19 05:21:51;;;;;;;4.13;3.73;;;;;;;14.51;59.62;97279.72;5044416;28;20828;-72
2023/03/19 05:24:16;;;;;;;7.30;3.83;;;;;;;14.54;59.29;97286.50;5057022;28;20186;-70
2023/03/19 05:26:42;;;;;;;10.00;4.47;;;;;;;14.52;59.28;97280.56;5043862;28;20262;-69
2023/03/19 05:29:09;;;;;;;4.27;3.80;;;;;;;14.52;58.89;97286.66;5048237;28;20231;-69
2023/03/19 05:31:36;;;;;;;5.60;4.13;;;;;;;14.51;58.76;97286.84;5045339;28;20693;-70
2023/03/19 05:34:01;;;;;;;4.80;4.00;;;;;;;14.49;58.95;97284.34;5042586;28;20433;-72
2023/03/19 05:36:27;;;;;;;4.30;3.90;;;;;;;14.43;58.67;97285.06;5047296;28;21089;-70
2023/03/19 05:38:53;;;;;;;4.67;4.07;;;;;;;14.37;58.38;97288.38;5047108;28;20221;-74
2023/03/19 05:41:18;;;;;;;8.53;4.50;;;;;;;14.25;59.80;97286.16;5053905;28;20432;-71
2023/03/19 05:43:44;;;;;;;10.53;3.90;;;;;;;14.34;60.03;97286.13;5043596;28;20195;-71
2023/03/19 05:46:10;;;;;;;5.33;4.30;;;;;;;14.37;59.72;97291.88;5046149;28;20188;-72
2023/03/19 05:48:36;;;;;;;4.80;4.30;;;;;;;14.42;59.83;97296.59;5044708;28;20183;-72
2023/03/19 05:51:02;;;;;;;6.43;4.40;;;;;;;14.37;59.71;97296.28;5054283;28;20461;-73
2023/03/19 05:53:28;;;;;;;4.87;4.37;;;;;;;14.41;59.67;97295.81;5052412;28;20425;-72
2023/03/19 05:55:53;;;;;;;5.07;4.00;;;;;;;14.38;58.76;97300.59;5044510;28;20341;-69
2023/03/19 05:58:19;;;;;;;5.13;3.83;;;;;;;14.39;57.88;97296.94;5046949;28;20293;-71
2023/03/19 06:00:45;;;;;;;5.40;4.10;;;;;;;14.43;58.24;97306.16;5041423;28;20211;-72
2023/03/19 06:03:10;;;;;;;4.77;3.90;;;;;;;14.42;58.76;97305.34;5035836;28;20263;-73
2023/03/19 06:05:35;;;;;;;5.43;4.00;;;;;;;14.36;59.72;97308.69;5037627;28;20263;-69
2023/03/19 06:08:01;;;;;;;5.00;3.60;;;;;;;14.27;60.54;97313.16;5040684;28;20343;-70
2023/03/19 06:10:26;;;;;;;5.23;4.07;;;;;;;14.24;61.21;97310.06;5038715;28;20199;-69
2023/03/19 06:12:52;;;;;;;4.30;3.70;;;;;;;14.25;61.26;97312.50;5036549;28;20277;-70
2023/03/19 06:15:17;;;;;;;7.00;4.33;;;;;;;14.27;60.96;97315.00;5039736;28;20271;-70
2023/03/19 06:17:43;;;;;;;4.80;3.80;;;;;;;14.33;60.91;97316.94;5043867;28;20302;-71
2023/03/19 06:20:10;;;;;;;5.23;3.70;;;;;;;14.35;60.40;97322.84;5035952;28;20225;-71
2023/03/19 06:22:36;;;;;;;4.97;3.50;;;;;;;14.35;60.42;97322.03;5039693;28;20598;-69
2023/03/19 06:25:01;;;;;;;5.00;3.67;;;;;;;14.41;60.08;97311.63;5040074;28;20422;-71
2023/03/19 06:27:27;;;;;;;4.83;4.03;;;;;;;14.29;60.74;97318.28;5046761;28;20194;-72
2023/03/19 06:29:52;;;;;;;5.73;4.10;;;;;;;14.35;60.88;97328.13;5039379;28;20679;-70
2023/03/19 06:32:17;;;;;;;4.67;4.10;;;;;;;14.38;61.05;97325.16;5042951;28;20281;-71
2023/03/19 06:34:43;;;;;;;4.60;3.63;;;;;;;14.38;60.28;97326.94;5034723;28;20757;-71
2023/03/19 06:37:08;;;;;;;4.97;4.17;;;;;;;14.30;59.97;97322.56;5038617;28;20207;-70
2023/03/19 06:39:34;;;;;;;4.80;4.10;;;;;;;14.34;60.45;97323.03;5034829;28;20195;-73
2023/03/19 06:41:59;;;;;;;5.03;4.23;;;;;;;14.25;60.38;97328.31;5038849;28;20211;-70
2023/03/19 06:44:25;;;;;;;9.27;4.03;;;;;;;14.29;60.07;97321.72;5055375;28;20660;-71
2023/03/19 06:46:50;;;;;;;6.40;3.40;;;;;;;14.25;58.34;97317.78;5033146;28;20212;-74
2023/03/19 06:49:16;;;;;;;4.20;3.33;;;;;;;14.29;58.23;97327.00;5036411;28;20599;-71
2023/03/19 06:51:42;;;;;;;5.40;3.70;;;;;;;14.30;57.60;97325.19;5042421;28;20298;-73
2023/03/19 06:54:07;;;;;;;6.40;3.70;;;;;;;14.33;57.17;97321.38;5047863;28;20424;-71
2023/03/19 06:56:33;;;;;;;8.50;4.03;;;;;;;14.25;56.98;97317.78;5044994;28;20215;-71
2023/03/19 06:58:58;;;;;;;4.37;3.93;;;;;;;14.31;57.34;97326.00;5037352;28;21419;-71
2023/03/19 07:01:24;;;;;;;5.40;3.60;;;;;;;14.36;56.90;97326.31;5037830;28;20212;-71
2023/03/19 07:03:50;;;;;;;4.30;3.10;;;;;;;14.37;56.42;97320.88;5047151;28;20225;-72
2023/03/19 07:06:15;;;;;;;4.50;3.07;;;;;;;14.40;56.31;97324.97;5038658;28;20176;-72
2023/03/19 07:08:45;;;;;;;5.47;3.80;;;;;;;14.40;56.17;97328.44;5047480;28;20534;-71
2023/03/19 07:11:11;;;;;;;4.20;3.67;;;;;;;14.39;55.81;97329.44;5040949;28;20579;-72
2023/03/19 07:13:36;;;;;;;7.13;3.43;;;;;;;14.44;55.67;97334.19;5040612;28;20461;-71
2023/03/19 07:16:02;;;;;;;6.27;3.27;;;;;;;14.41;55.41;97329.25;5034137;28;20451;-71
2023/03/19 07:18:28;;;;;;;5.63;3.87;;;;;;;14.38;55.66;97335.69;5028878;28;20807;-73
2023/03/19 07:20:53;;;;;;;5.17;3.77;;;;;;;14.31;56.00;97336.56;5050677;28;20687;-71
2023/03/19 07:23:18;;;;;;;11.43;3.60;;;;;;;14.34;55.92;97337.03;5035777;28;20223;-72
2023/03/19 07:25:46;;;;;;;5.17;3.70;;;;;;;14.43;55.75;97341.25;5039183;28;20648;-73
2023/03/19 07:28:12;;;;;;;6.60;3.83;;;;;;;14.49;55.47;97338.94;5040552;28;20178;-70
2023/03/19 07:30:38;;;;;;;4.90;3.43;;;;;;;14.50;55.14;97330.81;5034194;28;20862;-71
2023/03/19 07:33:06;;;;;;;4.23;3.10;;;;;;;14.58;54.44;97333.44;5034894;28;20421;-70
2023/03/19 07:35:32;;;;;;;4.00;2.80;;;;;;;14.59;54.12;97339.50;5031856;28;20198;-70
2023/03/19 07:37:58;;;;;;;4.70;3.17;;;;;;;14.62;54.02;97336.53;5041685;28;20466;-71
2023/03/19 07:40:24;;;;;;;3.70;3.20;;;;;;;14.59;54.57;97343.00;5034103;28;20477;-71
2023/03/19 07:42:50;;;;;;;3.77;2.93;;;;;;;14.71;54.03;97347.88;5036230;28;20446;-71
2023/03/19 07:45:15;;;;;;;3.90;2.87;;;;;;;14.69;53.86;97350.69;5036650;28;20469;-73
2023/03/19 07:47:41;;;;;;;4.43;3.03;;;;;;;14.72;53.54;97352.19;5028793;28;20741;-73
2023/03/19 07:50:07;;;;;;;3.90;2.83;;;;;;;14.76;53.63;97345.53;5038475;28;20209;-71
2023/03/19 07:52:32;;;;;;;4.40;3.30;;;;;;;14.79;53.33;97350.47;5031255;28;20274;-72
2023/03/19 07:54:58;;;;;;;5.07;3.10;;;;;;;14.82;53.12;97350.13;5049407;28;20464;-71
2023/03/19 07:57:24;;;;;;;6.13;3.13;;;;;;;14.89;53.22;97347.59;5031671;28;20212;-73
2023/03/19 07:59:50;;;;;;;5.90;2.90;;;;;;;14.81;53.62;97345.84;5041501;28;20262;-72
2023/03/19 08:02:16;;;;;;;5.00;3.00;;;;;;;14.94;52.96;97344.44;5030559;28;20497;-74
2023/03/19 08:04:43;;;;;;;4.10;2.77;;;;;;;14.96;52.92;97345.06;5028903;28;21065;-71
2023/03/19 08:07:11;;;;;;;3.63;2.87;;;;;;;15.02;52.63;97350.47;5031402;28;20183;-71
2023/03/19 08:09:38;;;;;;;5.77;3.10;;;;;;;15.02;52.99;97341.72;5035840;28;20522;-73
2023/03/19 08:12:04;;;;;;;5.77;3.20;;;;;;;15.13;52.92;97348.41;5036764;28;20442;-72
2023/03/19 08:14:29;;;;;;;5.47;3.07;;;;;;;15.13;52.73;97351.84;5041766;28;20414;-72
2023/03/19 08:16:55;;;;;;;4.20;2.63;;;;;;;15.15;53.11;97351.69;5041245;28;21127;-73
2023/03/19 08:19:21;;;;;;;3.67;2.83;;;;;;;15.16;53.84;97346.22;5041882;28;20329;-72
2023/03/19 08:21:46;;;;;;;4.23;2.60;;;;;;;15.18;53.70;97343.41;5037893;28;20210;-71
2023/03/19 08:24:11;;;;;;;5.77;2.77;;;;;;;15.23;53.44;97354.25;5034940;28;20333;-73
2023/03/19 08:26:37;;;;;;;4.13;2.97;;;;;;;15.26;53.15;97348.63;5040538;28;20180;-71
2023/03/19 08:29:03;;;;;;;4.80;2.77;;;;;;;15.33;53.25;97338.16;5035915;28;20180;-72
2023/03/19 08:31:29;;;;;;;5.20;2.80;;;;;;;15.39;52.42;97352.47;5031499;28;20258;-71
2023/03/19 08:33:55;;;;;;;5.63;3.43;;;;;;;15.44;52.41;97352.72;5033273;28;20192;-71
2023/03/19 08:36:20;;;;;;;3.53;2.40;;;;;;;15.34;52.20;97350.38;5034674;28;20433;-70
2023/03/19 08:38:45;;;;;;;4.10;2.70;;;;;;;15.30;52.32;97349.91;5039309;28;20199;-71
2023/03/19 08:41:11;;;;;;;3.13;2.83;;;;;;;15.33;51.78;97357.44;5038550;28;20210;-72
2023/03/19 08:43:37;;;;;;;4.17;2.57;;;;;;;15.35;52.28;97359.94;5042959;28;20194;-72
2023/03/19 08:46:03;;;;;;;2.90;2.60;;;;;;;15.28;51.52;97359.81;5016804;28;20190;-74
2023/03/19 08:48:29;;;;;;;3.90;3.00;;;;;;;15.36;51.76;97358.94;5044795;28;20188;-73
2023/03/19 08:50:56;;;;;;;4.77;3.00;;;;;;;15.39;51.90;97361.19;5042607;28;20965;-73
2023/03/19 08:53:22;;;;;;;6.77;3.60;;;;;;;15.35;52.01;97366.03;5048520;28;20973;-71
2023/03/19 08:55:56;;;;;;;7.80;3.07;;;;;;;15.50;52.17;97362.59;5044124;28;20421;-72
2023/03/19 08:58:22;;;;;;;3.87;3.40;;;;;;;15.53;52.10;97362.25;5044323;28;20465;-73
2023/03/19 09:00:48;;;;;;;4.70;3.10;;;;;;;15.73;52.06;97367.00;5048169;28;20477;-71
2023/03/19 09:03:14;;;;;;;4.57;3.03;;;;;;;15.89;51.80;97363.38;5051491;28;21001;-73
2023/03/19 09:05:39;;;;;;;2.83;2.63;;;;;;;16.26;51.24;97366.91;5052569;28;20428;-72
2023/03/19 09:08:05;;;;;;;6.90;3.30;;;;;;;16.39;51.03;97364.41;5055262;28;20836;-72
2023/03/19 09:10:31;;;;;;;3.60;3.00;;;;;;;16.51;50.20;97364.78;5052499;28;20209;-72
2023/03/19 09:12:56;;;;;;;5.67;2.97;;;;;;;16.63;48.82;97369.56;5040689;28;20198;-72
2023/03/19 09:15:22;;;;;;;2.83;2.63;;;;;;;16.84;48.29;97366.94;5044552;28;20790;-72
2023/03/19 09:17:47;;;;;;;3.00;2.53;;;;;;;16.86;48.00;97361.47;5036792;28;20653;-71
2023/03/19 09:20:12;;;;;;;3.73;2.87;;;;;;;17.04;47.86;97364.50;5042362;28;20286;-72
2023/03/19 09:22:38;;;;;;;5.27;3.03;;;;;;;17.26;47.15;97368.97;5039968;28;20191;-71
2023/03/19 09:25:04;;;;;;;6.10;2.70;;;;;;;17.35;46.59;97370.47;5037897;28;20287;-72
2023/03/19 09:27:29;;;;;;;3.43;2.07;;;;;;;17.48;45.80;97367.13;5036376;28;20882;-72
2023/03/19 09:29:55;;;;;;;4.23;2.37;;;;;;;17.50;45.22;97367.75;5047791;28;20646;-70
2023/03/19 09:32:20;;;;;;;9.23;2.90;;;;;;;17.77;45.11;97367.91;5048738;28;20226;-73
2023/03/19 09:34:46;;;;;;;5.60;2.33;;;;;;;17.80;43.59;97367.53;5040193;28;20266;-72
2023/03/19 09:37:12;;;;;;;3.73;2.40;;;;;;;18.01;43.15;97368.50;5035363;28;20660;-70
2023/03/19 09:39:37;;;;;;;3.37;2.40;;;;;;;18.37;41.96;97360.31;5039733;28;20187;-73
2023/03/19 09:42:10;;;;;;;3.20;2.70;;;;;;;18.64;41.02;97352.44;5034417;28;20199;-74
2023/03/19 09:44:37;;;;;;;4.93;2.80;;;;;;;18.84;40.22;97352.47;5037223;28;20534;-71
2023/03/19 09:47:25;;;;;;;4.40;2.60;;;;;;;19.13;40.07;97361.13;5052493;28;20417;-73
2023/03/19 09:49:52;;;;;;;5.40;2.50;;;;;;;19.64;39.32;97348.22;5048652;28;20419;-73
2023/03/19 09:52:32;;;;;;;5.07;2.23;;;;;;;19.79;39.21;97350.66;5041922;28;20454;-73
2023/03/19 09:55:04;;;;;;;3.20;2.20;;;;;;;20.03;39.13;97349.19;5036762;28;21126;-72
2023/03/19 09:57:32;;;;;;;3.87;2.50;;;;;;;20.37;38.10;97344.56;5048075;28;20466;-72
2023/03/19 09:59:57;;;;;;;2.73;2.13;;;;;;;20.21;37.76;97345.84;5045936;28;21000;-71
2023/03/19 10:02:28;;;;;;;6.47;2.00;;;;;;;20.22;36.99;97351.97;5039134;28;20425;-71
2023/03/19 10:05:05;;;;;;;6.23;2.57;;;;;;;20.36;36.89;97340.25;5044547;28;20274;-72
2023/03/19 10:07:49;;;;;;;4.73;2.10;;;;;;;20.76;37.11;97331.25;5035905;28;20452;-73
2023/03/19 10:10:36;;;;;;;6.83;2.07;;;;;;;21.09;36.52;97334.72;5036735;28;20902;-71
2023/03/19 10:13:11;;;;;;;2.30;2.10;;;;;;;21.41;35.83;97319.50;5043989;28;20966;-71
2023/03/19 10:15:39;;;;;;;2.50;1.90;;;;;;;21.45;35.26;97327.84;5037416;28;20418;-71
2023/03/19 10:18:15;;;;;;;2.90;1.93;;;;;;;21.70;34.92;97319.03;5030598;28;20477;-71
2023/03/19 10:21:00;;;;;;;5.80;2.37;;;;;;;22.06;34.80;97330.75;5041197;28;20441;-72
2023/03/19 10:23:33;;;;;;;4.00;2.00;;;;;;;22.09;33.38;97322.28;5032112;28;21164;-72
2023/03/19 10:26:01;;;;;;;3.07;2.03;;;;;;;22.02;33.26;97326.91;5027886;28;20526;-72
2023/03/19 10:28:28;;;;;;;3.40;1.70;;;;;;;21.71;33.51;97323.34;5037200;28;20458;-71
2023/03/19 10:31:06;;;;;;;2.70;1.83;;;;;;;22.12;31.13;97318.34;5044534;28;20461;-76
2023/03/19 10:33:51;;;;;;;3.87;1.83;;;;;;;22.40;31.60;97328.50;5034698;28;21214;-74
2023/03/19 10:36:19;;;;;;;3.40;2.10;;;;;;;21.94;29.77;97325.34;5029282;28;20477;-73
2023/03/19 10:38:44;;;;;;;3.17;1.97;;;;;;;22.16;29.57;97306.19;5040698;28;20430;-71
2023/03/19 10:41:30;;;;;;;11.50;3.03;;;;;;;22.06;29.81;97328.06;5056539;28;20979;-74
2023/03/19 10:44:00;;;;;;;5.40;2.00;;;;;;;22.40;30.03;97323.16;5049483;28;20188;-71
2023/03/19 10:46:25;;;;;;;3.13;2.00;;;;;;;22.52;29.57;97317.88;5041450;28;20418;-73
2023/03/19 10:48:51;;;;;;;4.83;2.20;;;;;;;22.48;30.13;97311.38;5040289;28;20588;-71
2023/03/19 10:51:25;;;;;;;2.43;1.97;;;;;;;22.77;29.85;97301.72;5041362;28;20289;-72
2023/03/19 10:53:52;;;;;;;3.13;2.27;;;;;;;22.48;30.16;97298.03;5032104;28;20203;-71
2023/03/19 10:56:19;;;;;;;3.57;2.20;;;;;;;22.38;30.73;97304.69;5037829;28;20426;-74
2023/03/19 10:59:23;;;;;;;3.20;1.87;;;;;;;22.44;30.61;97303.00;5019237;28;20449;-72
2023/03/19 11:01:49;;;;;;;8.50;2.13;;;;;;;22.89;30.28;97306.28;5036676;28;20453;-72
2023/03/19 11:04:20;;;;;;;3.53;2.33;;;;;;;22.68;29.65;97306.56;5046907;28;20484;-74
2023/03/19 11:06:51;;;;;;;2.90;2.13;;;;;;;22.54;30.80;97302.44;5037274;28;20263;-71
2023/03/19 11:09:32;;;;;;;2.80;2.20;;;;;;;22.37;31.29;97302.25;5045650;28;20504;-71
2023/03/19 11:12:05;;;;;;;3.73;2.23;;;;;;;22.57;30.83;97302.00;5041328;28;20503;-71
2023/03/19 11:14:35;;;;;;;4.90;2.50;;;;;;;22.57;30.78;97307.34;5045083;28;20559;-73
2023/03/19 11:17:05;;;;;;;4.00;2.03;;;;;;;22.62;31.08;97296.78;5033292;28;20461;-72
2023/03/19 11:19:40;;;;;;;2.40;2.13;;;;;;;22.24;30.82;97300.59;5037340;28;20420;-73
2023/03/19 11:22:15;;;;;;;4.30;2.03;;;;;;;22.30;31.25;97293.53;5034168;28;20457;-73
2023/03/19 11:24:48;;;;;;;4.80;2.30;;;;;;;22.17;30.58;97299.84;5040101;28;20425;-71
2023/03/19 11:27:13;;;;;;;4.10;2.17;;;;;;;22.15;30.67;97293.91;5039325;28;20423;-72
2023/03/19 11:29:41;;;;;;;2.43;1.90;;;;;;;22.37;30.20;97286.22;5038465;28;20464;-71
2023/03/19 11:32:25;;;;;;;2.20;1.90;;;;;;;22.61;29.62;97291.69;5044949;28;20206;-72